sensor_id;sensor_type;location;lat;lon;timestamp;P1;durP1;ratioP1;P2;durP2;ratioP2
17038;SDS011;8636;55.750;13.202;2024-02-28T00:01:28;0.10;;;0.10;;
17038;SDS011;8636;55.750;13.202;2024-02-28T00:04:02;0.20;;;0.20;;
17038;SDS011;8636;55.750;13.202;2024-02-28T00:06:32;0.10;;;0.10;;
17038;SDS011;8636;55.750;13.202;2024-02-28T00:09:00;0.10;;;0.10;;
17038;SDS011;8636;55.750;13.202;2024-02-28T00:11:42;0.13;;;0.13;;
17038;SDS011;8636;55.750;13.202;2024-02-28T00:14:11;0.00;;;0.00;;
17038;SDS011;8636;55.750;13.202;2024-02-28T00:16:45;0.10;;;0.10;;
17038;SDS011;8636;55.750;13.202;2024-02-28T00:19:14;0.10;;;0.10;;
17038;SDS011;8636;55.750;13.202;2024-02-28T00:21:45;0.13;;;0.13;;
17038;SDS011;8636;55.750;13.202;2024-02-28T00:24:19;0.20;;;0.20;;
17038;SDS011;8636;55.750;13.202;2024-02-28T00:26:47;0.10;;;0.10;;
17038;SDS011;8636;55.750;13.202;2024-02-28T00:29:15;0.30;;;0.30;;
17038;SDS011;8636;55.750;13.202;2024-02-28T00:31:50;0.20;;;0.20;;
17038;SDS011;8636;55.750;13.202;2024-02-28T00:34:18;0.10;;;0.10;;
17038;SDS011;8636;55.750;13.202;2024-02-28T00:36:48;0.03;;;0.03;;
17038;SDS011;8636;55.750;13.202;2024-02-28T00:39:23;0.20;;;0.20;;
17038;SDS011;8636;55.750;13.202;2024-02-28T00:41:52;0.10;;;0.10;;
17038;SDS011;8636;55.750;13.202;2024-02-28T00:44:20;0.00;;;0.00;;
17038;SDS011;8636;55.750;13.202;2024-02-28T00:46:54;0.10;;;0.10;;
17038;SDS011;8636;55.750;13.202;2024-02-28T00:49:22;0.10;;;0.10;;
17038;SDS011;8636;55.750;13.202;2024-02-28T00:51:52;0.17;;;0.17;;
17038;SDS011;8636;55.750;13.202;2024-02-28T00:54:26;0.10;;;0.10;;
17038;SDS011;8636;55.750;13.202;2024-02-28T00:56:54;0.30;;;0.30;;
17038;SDS011;8636;55.750;13.202;2024-02-28T00:59:22;0.20;;;0.20;;
17038;SDS011;8636;55.750;13.202;2024-02-28T01:01:56;0.20;;;0.20;;
17038;SDS011;8636;55.750;13.202;2024-02-28T01:04:24;0.10;;;0.10;;
17038;SDS011;8636;55.750;13.202;2024-02-28T01:06:54;0.10;;;0.10;;
17038;SDS011;8636;55.750;13.202;2024-02-28T01:09:28;0.10;;;0.10;;
17038;SDS011;8636;55.750;13.202;2024-02-28T01:12:09;0.13;;;0.13;;
17038;SDS011;8636;55.750;13.202;2024-02-28T01:14:43;0.00;;;0.00;;
17038;SDS011;8636;55.750;13.202;2024-02-28T01:17:12;0.00;;;0.00;;
17038;SDS011;8636;55.750;13.202;2024-02-28T01:19:40;0.00;;;0.00;;
17038;SDS011;8636;55.750;13.202;2024-02-28T01:22:16;0.10;;;0.10;;
17038;SDS011;8636;55.750;13.202;2024-02-28T01:24:46;0.20;;;0.20;;
17038;SDS011;8636;55.750;13.202;2024-02-28T01:27:14;0.10;;;0.10;;
17038;SDS011;8636;55.750;13.202;2024-02-28T01:29:48;0.00;;;0.00;;
17038;SDS011;8636;55.750;13.202;2024-02-28T01:32:16;0.10;;;0.10;;
17038;SDS011;8636;55.750;13.202;2024-02-28T01:34:44;0.00;;;0.00;;
17038;SDS011;8636;55.750;13.202;2024-02-28T01:37:19;0.00;;;0.00;;
17038;SDS011;8636;55.750;13.202;2024-02-28T01:39:47;0.00;;;0.00;;
17038;SDS011;8636;55.750;13.202;2024-02-28T01:42:15;0.10;;;0.10;;
17038;SDS011;8636;55.750;13.202;2024-02-28T01:44:50;0.10;;;0.10;;
17038;SDS011;8636;55.750;13.202;2024-02-28T01:47:18;0.00;;;0.00;;
17038;SDS011;8636;55.750;13.202;2024-02-28T01:49:46;0.00;;;0.00;;
17038;SDS011;8636;55.750;13.202;2024-02-28T01:52:22;0.00;;;0.00;;
17038;SDS011;8636;55.750;13.202;2024-02-28T01:54:50;0.10;;;0.10;;
17038;SDS011;8636;55.750;13.202;2024-02-28T01:57:19;0.00;;;0.00;;
17038;SDS011;8636;55.750;13.202;2024-02-28T01:59:53;0.00;;;0.00;;
17038;SDS011;8636;55.750;13.202;2024-02-28T02:02:22;0.00;;;0.00;;
17038;SDS011;8636;55.750;13.202;2024-02-28T02:05:10;0.10;;;0.10;;
17038;SDS011;8636;55.750;13.202;2024-02-28T02:07:39;0.10;;;0.10;;
17038;SDS011;8636;55.750;13.202;2024-02-28T02:10:14;0.00;;;0.00;;
17038;SDS011;8636;55.750;13.202;2024-02-28T02:12:42;0.00;;;0.00;;
17038;SDS011;8636;55.750;13.202;2024-02-28T02:15:10;0.00;;;0.00;;
17038;SDS011;8636;55.750;13.202;2024-02-28T02:17:45;0.00;;;0.00;;
17038;SDS011;8636;55.750;13.202;2024-02-28T02:20:14;0.00;;;0.00;;
17038;SDS011;8636;55.750;13.202;2024-02-28T02:22:43;0.00;;;0.00;;
17038;SDS011;8636;55.750;13.202;2024-02-28T02:25:19;0.00;;;0.00;;
17038;SDS011;8636;55.750;13.202;2024-02-28T02:27:50;0.00;;;0.00;;
17038;SDS011;8636;55.750;13.202;2024-02-28T02:30:18;0.00;;;0.00;;
17038;SDS011;8636;55.750;13.202;2024-02-28T02:32:52;0.00;;;0.00;;
17038;SDS011;8636;55.750;13.202;2024-02-28T02:35:20;0.00;;;0.00;;
17038;SDS011;8636;55.750;13.202;2024-02-28T02:37:49;0.00;;;0.00;;
17038;SDS011;8636;55.750;13.202;2024-02-28T02:40:24;0.00;;;0.00;;
17038;SDS011;8636;55.750;13.202;2024-02-28T02:42:52;0.10;;;0.10;;
17038;SDS011;8636;55.750;13.202;2024-02-28T02:45:20;0.00;;;0.00;;
17038;SDS011;8636;55.750;13.202;2024-02-28T02:47:54;0.00;;;0.00;;
17038;SDS011;8636;55.750;13.202;2024-02-28T02:50:22;0.00;;;0.00;;
17038;SDS011;8636;55.750;13.202;2024-02-28T02:52:51;0.00;;;0.00;;
17038;SDS011;8636;55.750;13.202;2024-02-28T02:55:26;0.00;;;0.00;;
17038;SDS011;8636;55.750;13.202;2024-02-28T02:57:54;0.00;;;0.00;;
17038;SDS011;8636;55.750;13.202;2024-02-28T03:00:22;0.10;;;0.10;;
17038;SDS011;8636;55.750;13.202;2024-02-28T03:02:56;0.10;;;0.10;;
17038;SDS011;8636;55.750;13.202;2024-02-28T03:05:31;0.10;;;0.10;;
17038;SDS011;8636;55.750;13.202;2024-02-28T03:08:08;0.10;;;0.10;;
17038;SDS011;8636;55.750;13.202;2024-02-28T03:10:35;0.00;;;0.00;;
17038;SDS011;8636;55.750;13.202;2024-02-28T03:13:03;0.00;;;0.00;;
17038;SDS011;8636;55.750;13.202;2024-02-28T03:15:39;0.00;;;0.00;;
17038;SDS011;8636;55.750;13.202;2024-02-28T03:18:07;0.00;;;0.00;;
17038;SDS011;8636;55.750;13.202;2024-02-28T03:20:35;0.00;;;0.00;;
17038;SDS011;8636;55.750;13.202;2024-02-28T03:23:12;0.10;;;0.10;;
17038;SDS011;8636;55.750;13.202;2024-02-28T03:25:40;0.07;;;0.07;;
17038;SDS011;8636;55.750;13.202;2024-02-28T03:28:08;0.00;;;0.00;;
17038;SDS011;8636;55.750;13.202;2024-02-28T03:30:43;0.10;;;0.10;;
17038;SDS011;8636;55.750;13.202;2024-02-28T03:33:11;0.07;;;0.07;;
17038;SDS011;8636;55.750;13.202;2024-02-28T03:35:39;0.10;;;0.10;;
17038;SDS011;8636;55.750;13.202;2024-02-28T03:38:15;0.03;;;0.03;;
17038;SDS011;8636;55.750;13.202;2024-02-28T03:40:43;0.00;;;0.00;;
17038;SDS011;8636;55.750;13.202;2024-02-28T03:43:11;0.10;;;0.10;;
17038;SDS011;8636;55.750;13.202;2024-02-28T03:45:46;0.10;;;0.10;;
17038;SDS011;8636;55.750;13.202;2024-02-28T03:48:14;0.10;;;0.10;;
17038;SDS011;8636;55.750;13.202;2024-02-28T03:50:43;0.00;;;0.00;;
17038;SDS011;8636;55.750;13.202;2024-02-28T03:53:19;0.00;;;0.00;;
17038;SDS011;8636;55.750;13.202;2024-02-28T03:55:47;0.03;;;0.03;;
17038;SDS011;8636;55.750;13.202;2024-02-28T03:58:14;0.00;;;0.00;;
17038;SDS011;8636;55.750;13.202;2024-02-28T04:00:49;0.10;;;0.10;;
17038;SDS011;8636;55.750;13.202;2024-02-28T04:03:24;0.10;;;0.10;;
17038;SDS011;8636;55.750;13.202;2024-02-28T04:06:05;0.10;;;0.10;;
17038;SDS011;8636;55.750;13.202;2024-02-28T04:08:35;0.10;;;0.10;;
17038;SDS011;8636;55.750;13.202;2024-02-28T04:11:03;0.10;;;0.10;;
17038;SDS011;8636;55.750;13.202;2024-02-28T04:13:37;0.10;;;0.10;;
17038;SDS011;8636;55.750;13.202;2024-02-28T04:16:06;0.00;;;0.00;;
17038;SDS011;8636;55.750;13.202;2024-02-28T04:18:35;0.03;;;0.03;;
17038;SDS011;8636;55.750;13.202;2024-02-28T04:21:09;0.00;;;0.00;;
17038;SDS011;8636;55.750;13.202;2024-02-28T04:23:39;0.00;;;0.00;;
17038;SDS011;8636;55.750;13.202;2024-02-28T04:26:08;0.00;;;0.00;;
17038;SDS011;8636;55.750;13.202;2024-02-28T04:28:42;0.00;;;0.00;;
17038;SDS011;8636;55.750;13.202;2024-02-28T04:31:10;0.00;;;0.00;;
17038;SDS011;8636;55.750;13.202;2024-02-28T04:33:38;0.00;;;0.00;;
17038;SDS011;8636;55.750;13.202;2024-02-28T04:36:12;0.00;;;0.00;;
17038;SDS011;8636;55.750;13.202;2024-02-28T04:38:42;0.00;;;0.00;;
17038;SDS011;8636;55.750;13.202;2024-02-28T04:41:10;0.00;;;0.00;;
17038;SDS011;8636;55.750;13.202;2024-02-28T04:43:44;0.00;;;0.00;;
17038;SDS011;8636;55.750;13.202;2024-02-28T04:46:12;0.00;;;0.00;;
17038;SDS011;8636;55.750;13.202;2024-02-28T04:48:40;0.00;;;0.00;;
17038;SDS011;8636;55.750;13.202;2024-02-28T04:51:15;0.00;;;0.00;;
17038;SDS011;8636;55.750;13.202;2024-02-28T04:53:45;0.00;;;0.00;;
17038;SDS011;8636;55.750;13.202;2024-02-28T04:56:13;0.00;;;0.00;;
17038;SDS011;8636;55.750;13.202;2024-02-28T04:58:48;0.00;;;0.00;;
17038;SDS011;8636;55.750;13.202;2024-02-28T05:01:16;0.00;;;0.00;;
17038;SDS011;8636;55.750;13.202;2024-02-28T05:03:47;0.00;;;0.00;;
17038;SDS011;8636;55.750;13.202;2024-02-28T05:06:28;0.00;;;0.00;;
17038;SDS011;8636;55.750;13.202;2024-02-28T05:08:57;0.00;;;0.00;;
17038;SDS011;8636;55.750;13.202;2024-02-28T05:11:32;0.00;;;0.00;;
17038;SDS011;8636;55.750;13.202;2024-02-28T05:14:00;0.00;;;0.00;;
17038;SDS011;8636;55.750;13.202;2024-02-28T05:16:28;0.00;;;0.00;;
17038;SDS011;8636;55.750;13.202;2024-02-28T05:19:02;0.00;;;0.00;;
17038;SDS011;8636;55.750;13.202;2024-02-28T05:21:31;0.00;;;0.00;;
17038;SDS011;8636;55.750;13.202;2024-02-28T05:24:00;0.00;;;0.00;;
17038;SDS011;8636;55.750;13.202;2024-02-28T05:26:34;0.00;;;0.00;;
17038;SDS011;8636;55.750;13.202;2024-02-28T05:29:03;0.00;;;0.00;;
17038;SDS011;8636;55.750;13.202;2024-02-28T05:31:34;0.00;;;0.00;;
17038;SDS011;8636;55.750;13.202;2024-02-28T05:34:22;0.00;;;0.00;;
17038;SDS011;8636;55.750;13.202;2024-02-28T05:36:50;0.00;;;0.00;;
17038;SDS011;8636;55.750;13.202;2024-02-28T05:39:26;0.00;;;0.00;;
17038;SDS011;8636;55.750;13.202;2024-02-28T05:41:55;0.00;;;0.00;;
17038;SDS011;8636;55.750;13.202;2024-02-28T05:44:23;0.00;;;0.00;;
17038;SDS011;8636;55.750;13.202;2024-02-28T05:46:58;0.00;;;0.00;;
17038;SDS011;8636;55.750;13.202;2024-02-28T05:49:26;0.00;;;0.00;;
17038;SDS011;8636;55.750;13.202;2024-02-28T05:51:54;0.00;;;0.00;;
17038;SDS011;8636;55.750;13.202;2024-02-28T05:54:30;0.00;;;0.00;;
17038;SDS011;8636;55.750;13.202;2024-02-28T05:56:58;0.00;;;0.00;;
17038;SDS011;8636;55.750;13.202;2024-02-28T05:59:25;0.00;;;0.00;;
17038;SDS011;8636;55.750;13.202;2024-02-28T06:02:00;0.00;;;0.00;;
17038;SDS011;8636;55.750;13.202;2024-02-28T06:04:28;0.00;;;0.00;;
17038;SDS011;8636;55.750;13.202;2024-02-28T06:07:09;0.00;;;0.00;;
17038;SDS011;8636;55.750;13.202;2024-02-28T06:09:39;0.00;;;0.00;;
17038;SDS011;8636;55.750;13.202;2024-02-28T06:12:07;0.00;;;0.00;;
17038;SDS011;8636;55.750;13.202;2024-02-28T06:14:41;0.00;;;0.00;;
17038;SDS011;8636;55.750;13.202;2024-02-28T06:17:09;0.00;;;0.00;;
17038;SDS011;8636;55.750;13.202;2024-02-28T06:19:37;0.00;;;0.00;;
17038;SDS011;8636;55.750;13.202;2024-02-28T06:22:11;0.00;;;0.00;;
17038;SDS011;8636;55.750;13.202;2024-02-28T06:24:41;0.00;;;0.00;;
17038;SDS011;8636;55.750;13.202;2024-02-28T06:27:09;0.00;;;0.00;;
17038;SDS011;8636;55.750;13.202;2024-02-28T06:29:45;0.00;;;0.00;;
17038;SDS011;8636;55.750;13.202;2024-02-28T06:32:15;0.00;;;0.00;;
17038;SDS011;8636;55.750;13.202;2024-02-28T06:34:43;0.00;;;0.00;;
17038;SDS011;8636;55.750;13.202;2024-02-28T06:37:17;0.00;;;0.00;;
17038;SDS011;8636;55.750;13.202;2024-02-28T06:39:47;0.00;;;0.00;;
17038;SDS011;8636;55.750;13.202;2024-02-28T06:42:15;0.00;;;0.00;;
17038;SDS011;8636;55.750;13.202;2024-02-28T06:44:49;0.00;;;0.00;;
17038;SDS011;8636;55.750;13.202;2024-02-28T06:47:17;0.00;;;0.00;;
17038;SDS011;8636;55.750;13.202;2024-02-28T06:49:45;0.00;;;0.00;;
17038;SDS011;8636;55.750;13.202;2024-02-28T06:52:19;0.00;;;0.00;;
17038;SDS011;8636;55.750;13.202;2024-02-28T06:54:48;0.00;;;0.00;;
17038;SDS011;8636;55.750;13.202;2024-02-28T06:57:17;0.00;;;0.00;;
17038;SDS011;8636;55.750;13.202;2024-02-28T06:59:52;0.00;;;0.00;;
17038;SDS011;8636;55.750;13.202;2024-02-28T07:02:20;0.00;;;0.00;;
17038;SDS011;8636;55.750;13.202;2024-02-28T07:04:48;0.00;;;0.00;;
17038;SDS011;8636;55.750;13.202;2024-02-28T07:07:22;0.00;;;0.00;;
17038;SDS011;8636;55.750;13.202;2024-02-28T07:09:52;0.00;;;0.00;;
17038;SDS011;8636;55.750;13.202;2024-02-28T07:12:20;0.00;;;0.00;;
17038;SDS011;8636;55.750;13.202;2024-02-28T07:14:54;0.00;;;0.00;;
17038;SDS011;8636;55.750;13.202;2024-02-28T07:17:22;0.00;;;0.00;;
17038;SDS011;8636;55.750;13.202;2024-02-28T07:19:50;0.00;;;0.00;;
17038;SDS011;8636;55.750;13.202;2024-02-28T07:22:25;0.00;;;0.00;;
17038;SDS011;8636;55.750;13.202;2024-02-28T07:24:54;0.00;;;0.00;;
17038;SDS011;8636;55.750;13.202;2024-02-28T07:27:22;0.00;;;0.00;;
17038;SDS011;8636;55.750;13.202;2024-02-28T07:29:57;0.00;;;0.00;;
17038;SDS011;8636;55.750;13.202;2024-02-28T07:32:25;0.00;;;0.00;;
17038;SDS011;8636;55.750;13.202;2024-02-28T07:34:53;0.00;;;0.00;;
17038;SDS011;8636;55.750;13.202;2024-02-28T07:37:28;0.00;;;0.00;;
17038;SDS011;8636;55.750;13.202;2024-02-28T07:39:58;0.00;;;0.00;;
17038;SDS011;8636;55.750;13.202;2024-02-28T07:42:26;0.00;;;0.00;;
17038;SDS011;8636;55.750;13.202;2024-02-28T07:45:00;0.00;;;0.00;;
17038;SDS011;8636;55.750;13.202;2024-02-28T07:47:28;0.00;;;0.00;;
17038;SDS011;8636;55.750;13.202;2024-02-28T07:49:57;0.00;;;0.00;;
17038;SDS011;8636;55.750;13.202;2024-02-28T07:52:31;0.00;;;0.00;;
17038;SDS011;8636;55.750;13.202;2024-02-28T07:55:02;0.00;;;0.00;;
17038;SDS011;8636;55.750;13.202;2024-02-28T07:57:38;0.00;;;0.00;;
17038;SDS011;8636;55.750;13.202;2024-02-28T08:00:07;0.00;;;0.00;;
17038;SDS011;8636;55.750;13.202;2024-02-28T08:06:28;0.00;;;0.00;;
17038;SDS011;8636;55.750;13.202;2024-02-28T08:12:55;0.00;;;0.00;;
17038;SDS011;8636;55.750;13.202;2024-02-28T08:16:25;0.00;;;0.00;;
17038;SDS011;8636;55.750;13.202;2024-02-28T08:19:14;0.00;;;0.00;;
17038;SDS011;8636;55.750;13.202;2024-02-28T08:22:27;0.00;;;0.00;;
17038;SDS011;8636;55.750;13.202;2024-02-28T08:25:14;0.00;;;0.00;;
17038;SDS011;8636;55.750;13.202;2024-02-28T08:27:59;0.00;;;0.00;;
17038;SDS011;8636;55.750;13.202;2024-02-28T08:30:37;0.00;;;0.00;;
17038;SDS011;8636;55.750;13.202;2024-02-28T08:33:26;0.00;;;0.00;;
17038;SDS011;8636;55.750;13.202;2024-02-28T08:36:20;0.00;;;0.00;;
17038;SDS011;8636;55.750;13.202;2024-02-28T08:39:29;0.00;;;0.00;;
17038;SDS011;8636;55.750;13.202;2024-02-28T08:42:03;0.00;;;0.00;;
17038;SDS011;8636;55.750;13.202;2024-02-28T08:44:49;0.00;;;0.00;;
17038;SDS011;8636;55.750;13.202;2024-02-28T08:47:35;0.00;;;0.00;;
17038;SDS011;8636;55.750;13.202;2024-02-28T08:50:19;0.00;;;0.00;;
17038;SDS011;8636;55.750;13.202;2024-02-28T08:53:07;0.00;;;0.00;;
17038;SDS011;8636;55.750;13.202;2024-02-28T08:55:55;0.00;;;0.00;;
17038;SDS011;8636;55.750;13.202;2024-02-28T08:58:47;0.00;;;0.00;;
17038;SDS011;8636;55.750;13.202;2024-02-28T09:01:36;0.00;;;0.00;;
17038;SDS011;8636;55.750;13.202;2024-02-28T09:04:04;0.00;;;0.00;;
17038;SDS011;8636;55.750;13.202;2024-02-28T09:06:46;0.00;;;0.00;;
17038;SDS011;8636;55.750;13.202;2024-02-28T09:09:14;0.00;;;0.00;;
17038;SDS011;8636;55.750;13.202;2024-02-28T09:11:49;0.00;;;0.00;;
17038;SDS011;8636;55.750;13.202;2024-02-28T09:14:17;0.00;;;0.00;;
17038;SDS011;8636;55.750;13.202;2024-02-28T09:16:47;0.00;;;0.00;;
17038;SDS011;8636;55.750;13.202;2024-02-28T09:19:21;0.00;;;0.00;;
17038;SDS011;8636;55.750;13.202;2024-02-28T09:21:49;0.00;;;0.00;;
17038;SDS011;8636;55.750;13.202;2024-02-28T09:24:17;0.00;;;0.00;;
17038;SDS011;8636;55.750;13.202;2024-02-28T09:26:53;0.00;;;0.00;;
17038;SDS011;8636;55.750;13.202;2024-02-28T09:29:21;0.00;;;0.00;;
17038;SDS011;8636;55.750;13.202;2024-02-28T09:31:51;0.00;;;0.00;;
17038;SDS011;8636;55.750;13.202;2024-02-28T09:34:25;0.00;;;0.00;;
17038;SDS011;8636;55.750;13.202;2024-02-28T09:36:53;0.00;;;0.00;;
17038;SDS011;8636;55.750;13.202;2024-02-28T09:39:21;0.00;;;0.00;;
17038;SDS011;8636;55.750;13.202;2024-02-28T09:41:56;0.00;;;0.00;;
17038;SDS011;8636;55.750;13.202;2024-02-28T09:44:25;0.00;;;0.00;;
17038;SDS011;8636;55.750;13.202;2024-02-28T09:46:55;0.00;;;0.00;;
17038;SDS011;8636;55.750;13.202;2024-02-28T09:49:30;0.00;;;0.00;;
17038;SDS011;8636;55.750;13.202;2024-02-28T09:51:59;0.00;;;0.00;;
17038;SDS011;8636;55.750;13.202;2024-02-28T09:54:29;0.00;;;0.00;;
17038;SDS011;8636;55.750;13.202;2024-02-28T09:57:04;0.00;;;0.00;;
17038;SDS011;8636;55.750;13.202;2024-02-28T09:59:32;0.00;;;0.00;;
17038;SDS011;8636;55.750;13.202;2024-02-28T10:02:19;0.00;;;0.00;;
17038;SDS011;8636;55.750;13.202;2024-02-28T10:04:54;0.00;;;0.00;;
17038;SDS011;8636;55.750;13.202;2024-02-28T10:07:36;0.00;;;0.00;;
17038;SDS011;8636;55.750;13.202;2024-02-28T10:10:10;0.00;;;0.00;;
17038;SDS011;8636;55.750;13.202;2024-02-28T10:12:40;0.00;;;0.00;;
17038;SDS011;8636;55.750;13.202;2024-02-28T10:15:09;0.00;;;0.00;;
17038;SDS011;8636;55.750;13.202;2024-02-28T10:17:46;0.00;;;0.00;;
17038;SDS011;8636;55.750;13.202;2024-02-28T10:20:15;0.00;;;0.00;;
17038;SDS011;8636;55.750;13.202;2024-02-28T10:22:43;0.00;;;0.00;;
17038;SDS011;8636;55.750;13.202;2024-02-28T10:25:17;0.00;;;0.00;;
17038;SDS011;8636;55.750;13.202;2024-02-28T10:27:46;0.00;;;0.00;;
17038;SDS011;8636;55.750;13.202;2024-02-28T10:30:14;0.00;;;0.00;;
17038;SDS011;8636;55.750;13.202;2024-02-28T10:32:51;0.00;;;0.00;;
17038;SDS011;8636;55.750;13.202;2024-02-28T10:35:19;0.00;;;0.00;;
17038;SDS011;8636;55.750;13.202;2024-02-28T10:37:57;0.00;;;0.00;;
17038;SDS011;8636;55.750;13.202;2024-02-28T10:40:26;0.00;;;0.00;;
17038;SDS011;8636;55.750;13.202;2024-02-28T10:42:55;0.00;;;0.00;;
17038;SDS011;8636;55.750;13.202;2024-02-28T10:45:30;0.00;;;0.00;;
17038;SDS011;8636;55.750;13.202;2024-02-28T10:48:20;0.00;;;0.00;;
17038;SDS011;8636;55.750;13.202;2024-02-28T10:50:55;0.00;;;0.00;;
17038;SDS011;8636;55.750;13.202;2024-02-28T10:53:26;0.00;;;0.00;;
17038;SDS011;8636;55.750;13.202;2024-02-28T10:56:12;0.00;;;0.00;;
17038;SDS011;8636;55.750;13.202;2024-02-28T10:58:45;0.00;;;0.00;;
17038;SDS011;8636;55.750;13.202;2024-02-28T11:01:24;0.00;;;0.00;;
17038;SDS011;8636;55.750;13.202;2024-02-28T11:03:55;0.00;;;0.00;;
17038;SDS011;8636;55.750;13.202;2024-02-28T11:06:23;0.00;;;0.00;;
17038;SDS011;8636;55.750;13.202;2024-02-28T11:08:59;0.00;;;0.00;;
17038;SDS011;8636;55.750;13.202;2024-02-28T11:11:31;0.00;;;0.00;;
17038;SDS011;8636;55.750;13.202;2024-02-28T11:14:07;0.00;;;0.00;;
17038;SDS011;8636;55.750;13.202;2024-02-28T11:16:42;0.00;;;0.00;;
17038;SDS011;8636;55.750;13.202;2024-02-28T11:19:20;0.00;;;0.00;;
17038;SDS011;8636;55.750;13.202;2024-02-28T11:21:51;0.00;;;0.00;;
17038;SDS011;8636;55.750;13.202;2024-02-28T11:24:29;0.00;;;0.00;;
17038;SDS011;8636;55.750;13.202;2024-02-28T11:26:58;0.00;;;0.00;;
17038;SDS011;8636;55.750;13.202;2024-02-28T11:29:26;0.00;;;0.00;;
17038;SDS011;8636;55.750;13.202;2024-02-28T11:32:02;0.00;;;0.00;;
17038;SDS011;8636;55.750;13.202;2024-02-28T11:34:33;0.00;;;0.00;;
17038;SDS011;8636;55.750;13.202;2024-02-28T11:37:01;0.00;;;0.00;;
17038;SDS011;8636;55.750;13.202;2024-02-28T11:39:38;0.00;;;0.00;;
17038;SDS011;8636;55.750;13.202;2024-02-28T11:42:09;0.00;;;0.00;;
17038;SDS011;8636;55.750;13.202;2024-02-28T11:44:52;0.00;;;0.00;;
17038;SDS011;8636;55.750;13.202;2024-02-28T11:47:26;0.00;;;0.00;;
17038;SDS011;8636;55.750;13.202;2024-02-28T11:50:03;0.00;;;0.00;;
17038;SDS011;8636;55.750;13.202;2024-02-28T11:52:35;0.00;;;0.00;;
17038;SDS011;8636;55.750;13.202;2024-02-28T11:55:10;0.00;;;0.00;;
17038;SDS011;8636;55.750;13.202;2024-02-28T11:57:39;0.00;;;0.00;;
17038;SDS011;8636;55.750;13.202;2024-02-28T12:00:07;0.00;;;0.00;;
17038;SDS011;8636;55.750;13.202;2024-02-28T12:02:46;0.00;;;0.00;;
17038;SDS011;8636;55.750;13.202;2024-02-28T12:05:18;0.00;;;0.00;;
17038;SDS011;8636;55.750;13.202;2024-02-28T12:08:01;0.00;;;0.00;;
17038;SDS011;8636;55.750;13.202;2024-02-28T12:10:29;0.00;;;0.00;;
17038;SDS011;8636;55.750;13.202;2024-02-28T12:12:59;0.00;;;0.00;;
17038;SDS011;8636;55.750;13.202;2024-02-28T12:15:34;0.00;;;0.00;;
17038;SDS011;8636;55.750;13.202;2024-02-28T12:18:06;0.00;;;0.00;;
17038;SDS011;8636;55.750;13.202;2024-02-28T12:20:44;0.00;;;0.00;;
17038;SDS011;8636;55.750;13.202;2024-02-28T12:23:13;0.00;;;0.00;;
17038;SDS011;8636;55.750;13.202;2024-02-28T12:25:41;0.00;;;0.00;;
17038;SDS011;8636;55.750;13.202;2024-02-28T12:28:15;0.00;;;0.00;;
17038;SDS011;8636;55.750;13.202;2024-02-28T12:30:43;0.00;;;0.00;;
17038;SDS011;8636;55.750;13.202;2024-02-28T12:33:11;0.00;;;0.00;;
17038;SDS011;8636;55.750;13.202;2024-02-28T12:35:48;0.00;;;0.00;;
17038;SDS011;8636;55.750;13.202;2024-02-28T12:38:17;0.00;;;0.00;;
17038;SDS011;8636;55.750;13.202;2024-02-28T12:40:45;0.00;;;0.00;;
17038;SDS011;8636;55.750;13.202;2024-02-28T12:43:20;0.00;;;0.00;;
17038;SDS011;8636;55.750;13.202;2024-02-28T12:45:51;0.00;;;0.00;;
17038;SDS011;8636;55.750;13.202;2024-02-28T12:48:19;0.00;;;0.00;;
17038;SDS011;8636;55.750;13.202;2024-02-28T12:50:56;0.00;;;0.00;;
17038;SDS011;8636;55.750;13.202;2024-02-28T12:53:24;0.00;;;0.00;;
17038;SDS011;8636;55.750;13.202;2024-02-28T12:55:52;0.00;;;0.00;;
17038;SDS011;8636;55.750;13.202;2024-02-28T12:58:26;0.00;;;0.00;;
17038;SDS011;8636;55.750;13.202;2024-02-28T13:00:54;0.00;;;0.00;;
17038;SDS011;8636;55.750;13.202;2024-02-28T13:03:22;0.00;;;0.00;;
17038;SDS011;8636;55.750;13.202;2024-02-28T13:06:06;0.00;;;0.00;;
17038;SDS011;8636;55.750;13.202;2024-02-28T13:08:47;0.00;;;0.00;;
17038;SDS011;8636;55.750;13.202;2024-02-28T13:11:24;0.00;;;0.00;;
17038;SDS011;8636;55.750;13.202;2024-02-28T13:13:53;0.00;;;0.00;;
17038;SDS011;8636;55.750;13.202;2024-02-28T13:16:21;0.00;;;0.00;;
17038;SDS011;8636;55.750;13.202;2024-02-28T13:18:56;0.00;;;0.00;;
17038;SDS011;8636;55.750;13.202;2024-02-28T13:21:26;0.00;;;0.00;;
17038;SDS011;8636;55.750;13.202;2024-02-28T13:23:54;0.00;;;0.00;;
17038;SDS011;8636;55.750;13.202;2024-02-28T13:26:28;0.00;;;0.00;;
17038;SDS011;8636;55.750;13.202;2024-02-28T13:28:56;0.00;;;0.00;;
17038;SDS011;8636;55.750;13.202;2024-02-28T13:31:24;0.00;;;0.00;;
17038;SDS011;8636;55.750;13.202;2024-02-28T13:33:59;0.00;;;0.00;;
17038;SDS011;8636;55.750;13.202;2024-02-28T13:36:31;0.00;;;0.00;;
17038;SDS011;8636;55.750;13.202;2024-02-28T13:39:09;0.00;;;0.00;;
17038;SDS011;8636;55.750;13.202;2024-02-28T13:41:38;0.00;;;0.00;;
17038;SDS011;8636;55.750;13.202;2024-02-28T13:44:07;0.00;;;0.00;;
17038;SDS011;8636;55.750;13.202;2024-02-28T13:46:42;0.00;;;0.00;;
17038;SDS011;8636;55.750;13.202;2024-02-28T13:49:10;0.00;;;0.00;;
17038;SDS011;8636;55.750;13.202;2024-02-28T13:51:41;0.00;;;0.00;;
17038;SDS011;8636;55.750;13.202;2024-02-28T13:54:16;0.00;;;0.00;;
17038;SDS011;8636;55.750;13.202;2024-02-28T13:56:44;0.00;;;0.00;;
17038;SDS011;8636;55.750;13.202;2024-02-28T13:59:12;0.00;;;0.00;;
17038;SDS011;8636;55.750;13.202;2024-02-28T14:01:46;0.00;;;0.00;;
17038;SDS011;8636;55.750;13.202;2024-02-28T14:04:15;0.00;;;0.00;;
17038;SDS011;8636;55.750;13.202;2024-02-28T14:06:45;0.00;;;0.00;;
17038;SDS011;8636;55.750;13.202;2024-02-28T14:09:19;0.00;;;0.00;;
17038;SDS011;8636;55.750;13.202;2024-02-28T14:11:47;0.00;;;0.00;;
17038;SDS011;8636;55.750;13.202;2024-02-28T14:14:15;0.00;;;0.00;;
17038;SDS011;8636;55.750;13.202;2024-02-28T14:16:50;0.00;;;0.00;;
17038;SDS011;8636;55.750;13.202;2024-02-28T14:19:19;0.00;;;0.00;;
17038;SDS011;8636;55.750;13.202;2024-02-28T14:21:48;0.00;;;0.00;;
17038;SDS011;8636;55.750;13.202;2024-02-28T14:24:22;0.00;;;0.00;;
17038;SDS011;8636;55.750;13.202;2024-02-28T14:26:51;0.00;;;0.00;;
17038;SDS011;8636;55.750;13.202;2024-02-28T14:29:18;0.00;;;0.00;;
17038;SDS011;8636;55.750;13.202;2024-02-28T14:32:11;0.00;;;0.00;;
17038;SDS011;8636;55.750;13.202;2024-02-28T14:34:55;0.00;;;0.00;;
17038;SDS011;8636;55.750;13.202;2024-02-28T14:37:32;0.00;;;0.00;;
17038;SDS011;8636;55.750;13.202;2024-02-28T14:40:00;0.00;;;0.00;;
17038;SDS011;8636;55.750;13.202;2024-02-28T14:42:38;0.00;;;0.00;;
17038;SDS011;8636;55.750;13.202;2024-02-28T14:45:09;0.00;;;0.00;;
17038;SDS011;8636;55.750;13.202;2024-02-28T14:47:44;0.00;;;0.00;;
17038;SDS011;8636;55.750;13.202;2024-02-28T14:50:12;0.00;;;0.00;;
17038;SDS011;8636;55.750;13.202;2024-02-28T14:52:49;0.00;;;0.00;;
17038;SDS011;8636;55.750;13.202;2024-02-28T14:55:17;0.00;;;0.00;;
17038;SDS011;8636;55.750;13.202;2024-02-28T14:57:51;0.00;;;0.00;;
17038;SDS011;8636;55.750;13.202;2024-02-28T15:00:19;0.00;;;0.00;;
17038;SDS011;8636;55.750;13.202;2024-02-28T15:02:55;0.00;;;0.00;;
17038;SDS011;8636;55.750;13.202;2024-02-28T15:05:29;0.00;;;0.00;;
17038;SDS011;8636;55.750;13.202;2024-02-28T15:08:05;0.00;;;0.00;;
17038;SDS011;8636;55.750;13.202;2024-02-28T15:10:40;0.00;;;0.00;;
17038;SDS011;8636;55.750;13.202;2024-02-28T15:13:15;0.00;;;0.00;;
17038;SDS011;8636;55.750;13.202;2024-02-28T15:15:43;0.00;;;0.00;;
17038;SDS011;8636;55.750;13.202;2024-02-28T15:18:11;0.00;;;0.00;;
17038;SDS011;8636;55.750;13.202;2024-02-28T15:20:46;0.00;;;0.00;;
17038;SDS011;8636;55.750;13.202;2024-02-28T15:23:26;0.00;;;0.00;;
17038;SDS011;8636;55.750;13.202;2024-02-28T15:25:57;0.00;;;0.00;;
17038;SDS011;8636;55.750;13.202;2024-02-28T15:28:31;0.00;;;0.00;;